sensor_id;sensor_type;location;lat;lon;timestamp;temperature;humidity
20364;DHT22;10340;53.664;9.908;2022-11-20T00:00:39;1.70;99.90
20364;DHT22;10340;53.664;9.908;2022-11-20T00:03:07;1.60;99.90
20364;DHT22;10340;53.664;9.908;2022-11-20T00:05:34;1.60;99.90
20364;DHT22;10340;53.664;9.908;2022-11-20T00:08:01;1.60;99.90
20364;DHT22;10340;53.664;9.908;2022-11-20T00:10:28;1.60;99.90
20364;DHT22;10340;53.664;9.908;2022-11-20T00:12:55;1.60;99.90
20364;DHT22;10340;53.664;9.908;2022-11-20T00:15:24;1.60;99.90
20364;DHT22;10340;53.664;9.908;2022-11-20T00:17:51;1.50;99.90
20364;DHT22;10340;53.664;9.908;2022-11-20T00:20:19;1.50;99.90
20364;DHT22;10340;53.664;9.908;2022-11-20T00:22:46;1.50;99.90
20364;DHT22;10340;53.664;9.908;2022-11-20T00:25:13;1.50;99.90
20364;DHT22;10340;53.664;9.908;2022-11-20T00:27:40;1.50;99.90
20364;DHT22;10340;53.664;9.908;2022-11-20T00:30:08;1.50;99.90
20364;DHT22;10340;53.664;9.908;2022-11-20T00:32:35;1.50;99.90
20364;DHT22;10340;53.664;9.908;2022-11-20T00:35:02;1.50;99.90
20364;DHT22;10340;53.664;9.908;2022-11-20T00:37:31;1.50;99.90
20364;DHT22;10340;53.664;9.908;2022-11-20T00:39:58;1.50;99.90
20364;DHT22;10340;53.664;9.908;2022-11-20T00:42:25;1.50;99.90
20364;DHT22;10340;53.664;9.908;2022-11-20T00:44:52;1.50;99.90
20364;DHT22;10340;53.664;9.908;2022-11-20T00:47:19;1.50;99.90
20364;DHT22;10340;53.664;9.908;2022-11-20T00:49:46;1.50;99.90
20364;DHT22;10340;53.664;9.908;2022-11-20T00:52:13;1.40;99.90
20364;DHT22;10340;53.664;9.908;2022-11-20T00:54:41;1.40;99.90
20364;DHT22;10340;53.664;9.908;2022-11-20T00:57:08;1.40;99.90
20364;DHT22;10340;53.664;9.908;2022-11-20T00:59:35;1.40;99.90
20364;DHT22;10340;53.664;9.908;2022-11-20T01:02:02;1.40;99.90
20364;DHT22;10340;53.664;9.908;2022-11-20T01:04:29;1.40;99.90
20364;DHT22;10340;53.664;9.908;2022-11-20T01:06:56;1.30;99.90
20364;DHT22;10340;53.664;9.908;2022-11-20T01:09:23;1.30;99.90
20364;DHT22;10340;53.664;9.908;2022-11-20T01:11:52;1.30;99.90
20364;DHT22;10340;53.664;9.908;2022-11-20T01:14:19;1.30;99.90
20364;DHT22;10340;53.664;9.908;2022-11-20T01:16:48;1.30;99.90
20364;DHT22;10340;53.664;9.908;2022-11-20T01:19:20;1.20;99.90
20364;DHT22;10340;53.664;9.908;2022-11-20T01:21:50;1.20;99.90
20364;DHT22;10340;53.664;9.908;2022-11-20T01:24:19;1.20;99.90
20364;DHT22;10340;53.664;9.908;2022-11-20T01:26:48;1.20;99.90
20364;DHT22;10340;53.664;9.908;2022-11-20T01:29:19;1.20;99.90
20364;DHT22;10340;53.664;9.908;2022-11-20T01:31:46;1.20;99.90
20364;DHT22;10340;53.664;9.908;2022-11-20T01:34:16;1.20;99.90
20364;DHT22;10340;53.664;9.908;2022-11-20T01:36:43;1.20;99.90
20364;DHT22;10340;53.664;9.908;2022-11-20T01:39:13;1.20;99.90
20364;DHT22;10340;53.664;9.908;2022-11-20T01:41:41;1.10;99.90
20364;DHT22;10340;53.664;9.908;2022-11-20T01:44:47;1.20;99.90
20364;DHT22;10340;53.664;9.908;2022-11-20T01:47:17;1.10;99.90
20364;DHT22;10340;53.664;9.908;2022-11-20T01:49:48;1.10;99.90
20364;DHT22;10340;53.664;9.908;2022-11-20T01:52:19;1.10;99.90
20364;DHT22;10340;53.664;9.908;2022-11-20T01:54:48;1.20;99.90
20364;DHT22;10340;53.664;9.908;2022-11-20T01:57:17;1.20;99.90
20364;DHT22;10340;53.664;9.908;2022-11-20T01:59:51;1.20;99.90
20364;DHT22;10340;53.664;9.908;2022-11-20T02:02:20;1.30;99.90
20364;DHT22;10340;53.664;9.908;2022-11-20T02:04:49;1.20;99.90
20364;DHT22;10340;53.664;9.908;2022-11-20T02:07:19;1.30;99.90
20364;DHT22;10340;53.664;9.908;2022-11-20T02:09:46;1.30;99.90
20364;DHT22;10340;53.664;9.908;2022-11-20T02:12:14;1.30;99.90
20364;DHT22;10340;53.664;9.908;2022-11-20T02:14:57;1.30;99.90
20364;DHT22;10340;53.664;9.908;2022-11-20T02:17:24;1.30;99.90
20364;DHT22;10340;53.664;9.908;2022-11-20T02:19:51;1.30;99.90
20364;DHT22;10340;53.664;9.908;2022-11-20T02:22:21;1.30;99.90
20364;DHT22;10340;53.664;9.908;2022-11-20T02:24:52;1.20;99.90
20364;DHT22;10340;53.664;9.908;2022-11-20T02:27:19;1.30;99.90
20364;DHT22;10340;53.664;9.908;2022-11-20T02:29:50;1.30;99.90
20364;DHT22;10340;53.664;9.908;2022-11-20T02:32:19;1.30;99.90
20364;DHT22;10340;53.664;9.908;2022-11-20T02:34:46;1.30;99.90
20364;DHT22;10340;53.664;9.908;2022-11-20T02:37:14;1.40;99.90
20364;DHT22;10340;53.664;9.908;2022-11-20T02:39:41;1.30;99.90
20364;DHT22;10340;53.664;9.908;2022-11-20T02:42:11;1.30;99.90
20364;DHT22;10340;53.664;9.908;2022-11-20T02:44:38;1.30;99.90
20364;DHT22;10340;53.664;9.908;2022-11-20T02:47:05;1.30;99.90
20364;DHT22;10340;53.664;9.908;2022-11-20T02:49:32;1.30;99.90
20364;DHT22;10340;53.664;9.908;2022-11-20T02:51:59;1.20;99.90
20364;DHT22;10340;53.664;9.908;2022-11-20T02:54:26;1.30;99.90
20364;DHT22;10340;53.664;9.908;2022-11-20T02:56:53;1.30;99.90
20364;DHT22;10340;53.664;9.908;2022-11-20T02:59:21;1.30;99.90
20364;DHT22;10340;53.664;9.908;2022-11-20T03:01:48;1.30;99.90
20364;DHT22;10340;53.664;9.908;2022-11-20T03:04:15;1.30;99.90
20364;DHT22;10340;53.664;9.908;2022-11-20T03:06:43;1.30;99.90
20364;DHT22;10340;53.664;9.908;2022-11-20T03:09:10;1.30;99.90
20364;DHT22;10340;53.664;9.908;2022-11-20T03:11:38;1.30;99.90
20364;DHT22;10340;53.664;9.908;2022-11-20T03:14:05;1.30;99.90
20364;DHT22;10340;53.664;9.908;2022-11-20T03:16:34;1.20;99.90
20364;DHT22;10340;53.664;9.908;2022-11-20T03:19:00;1.20;99.90
20364;DHT22;10340;53.664;9.908;2022-11-20T03:21:27;1.20;99.90
20364;DHT22;10340;53.664;9.908;2022-11-20T03:23:54;1.20;99.90
20364;DHT22;10340;53.664;9.908;2022-11-20T03:26:24;1.30;99.90
20364;DHT22;10340;53.664;9.908;2022-11-20T03:28:52;1.30;99.90
20364;DHT22;10340;53.664;9.908;2022-11-20T03:31:22;1.30;99.90
20364;DHT22;10340;53.664;9.908;2022-11-20T03:33:51;1.30;99.90
20364;DHT22;10340;53.664;9.908;2022-11-20T03:36:19;1.30;99.90
20364;DHT22;10340;53.664;9.908;2022-11-20T03:38:46;1.30;99.90
20364;DHT22;10340;53.664;9.908;2022-11-20T03:41:14;1.30;99.90
20364;DHT22;10340;53.664;9.908;2022-11-20T03:43:42;1.30;99.90
20364;DHT22;10340;53.664;9.908;2022-11-20T03:46:08;1.30;99.90
20364;DHT22;10340;53.664;9.908;2022-11-20T03:48:35;1.20;99.90
20364;DHT22;10340;53.664;9.908;2022-11-20T03:51:12;1.20;99.90
20364;DHT22;10340;53.664;9.908;2022-11-20T03:53:39;1.20;99.90
20364;DHT22;10340;53.664;9.908;2022-11-20T03:56:08;1.20;99.90
20364;DHT22;10340;53.664;9.908;2022-11-20T03:58:36;1.20;99.90
20364;DHT22;10340;53.664;9.908;2022-11-20T04:01:06;1.20;99.90
20364;DHT22;10340;53.664;9.908;2022-11-20T04:03:33;1.20;99.90
20364;DHT22;10340;53.664;9.908;2022-11-20T04:06:03;1.20;99.90
20364;DHT22;10340;53.664;9.908;2022-11-20T04:08:32;1.20;99.90
20364;DHT22;10340;53.664;9.908;2022-11-20T04:11:09;1.20;99.90
20364;DHT22;10340;53.664;9.908;2022-11-20T04:13:36;1.20;99.90
20364;DHT22;10340;53.664;9.908;2022-11-20T04:16:04;1.20;99.90
20364;DHT22;10340;53.664;9.908;2022-11-20T04:18:31;1.10;99.90
20364;DHT22;10340;53.664;9.908;2022-11-20T04:20:58;1.20;99.90
20364;DHT22;10340;53.664;9.908;2022-11-20T04:23:25;1.20;99.90
20364;DHT22;10340;53.664;9.908;2022-11-20T04:25:53;1.20;99.90
20364;DHT22;10340;53.664;9.908;2022-11-20T04:28:20;1.20;99.90
20364;DHT22;10340;53.664;9.908;2022-11-20T04:30:47;1.10;99.90
20364;DHT22;10340;53.664;9.908;2022-11-20T04:33:14;1.10;99.90
20364;DHT22;10340;53.664;9.908;2022-11-20T04:35:41;1.10;99.90
20364;DHT22;10340;53.664;9.908;2022-11-20T04:38:08;1.20;99.90
20364;DHT22;10340;53.664;9.908;2022-11-20T04:40:35;1.10;99.90
20364;DHT22;10340;53.664;9.908;2022-11-20T04:43:03;1.20;99.90
20364;DHT22;10340;53.664;9.908;2022-11-20T04:45:31;1.10;99.90
20364;DHT22;10340;53.664;9.908;2022-11-20T04:47:58;1.20;99.90
20364;DHT22;10340;53.664;9.908;2022-11-20T04:50:25;1.20;99.90
20364;DHT22;10340;53.664;9.908;2022-11-20T04:52:52;1.20;99.90
20364;DHT22;10340;53.664;9.908;2022-11-20T04:55:18;1.20;99.90
20364;DHT22;10340;53.664;9.908;2022-11-20T04:57:45;1.10;99.90
20364;DHT22;10340;53.664;9.908;2022-11-20T05:00:17;1.20;99.90
20364;DHT22;10340;53.664;9.908;2022-11-20T05:02:44;1.20;99.90
20364;DHT22;10340;53.664;9.908;2022-11-20T05:05:11;1.20;99.90
20364;DHT22;10340;53.664;9.908;2022-11-20T05:07:38;1.20;99.90
20364;DHT22;10340;53.664;9.908;2022-11-20T05:10:06;1.20;99.90
20364;DHT22;10340;53.664;9.908;2022-11-20T05:12:33;1.20;99.90
20364;DHT22;10340;53.664;9.908;2022-11-20T05:15:00;1.20;99.90
20364;DHT22;10340;53.664;9.908;2022-11-20T05:17:30;1.20;99.90
20364;DHT22;10340;53.664;9.908;2022-11-20T05:19:57;1.20;99.90
20364;DHT22;10340;53.664;9.908;2022-11-20T05:22:24;1.20;99.90
20364;DHT22;10340;53.664;9.908;2022-11-20T05:24:51;1.20;99.90
20364;DHT22;10340;53.664;9.908;2022-11-20T05:27:18;1.20;99.90
20364;DHT22;10340;53.664;9.908;2022-11-20T05:29:45;1.20;99.90
20364;DHT22;10340;53.664;9.908;2022-11-20T05:32:11;1.20;99.90
20364;DHT22;10340;53.664;9.908;2022-11-20T05:34:40;1.10;99.90
20364;DHT22;10340;53.664;9.908;2022-11-20T05:37:07;1.10;99.90
20364;DHT22;10340;53.664;9.908;2022-11-20T05:39:34;1.10;99.90
20364;DHT22;10340;53.664;9.908;2022-11-20T05:42:01;1.20;99.90
20364;DHT22;10340;53.664;9.908;2022-11-20T05:44:45;1.20;99.90
20364;DHT22;10340;53.664;9.908;2022-11-20T05:47:12;1.10;99.90
20364;DHT22;10340;53.664;9.908;2022-11-20T05:49:40;1.10;99.90
20364;DHT22;10340;53.664;9.908;2022-11-20T05:52:07;1.10;99.90
20364;DHT22;10340;53.664;9.908;2022-11-20T05:54:34;1.10;99.90
20364;DHT22;10340;53.664;9.908;2022-11-20T05:57:01;1.10;99.90
20364;DHT22;10340;53.664;9.908;2022-11-20T05:59:28;1.00;99.90
20364;DHT22;10340;53.664;9.908;2022-11-20T06:01:55;1.10;99.90
20364;DHT22;10340;53.664;9.908;2022-11-20T06:04:22;1.10;99.90
20364;DHT22;10340;53.664;9.908;2022-11-20T06:06:51;1.10;99.90
20364;DHT22;10340;53.664;9.908;2022-11-20T06:09:17;1.10;99.90
20364;DHT22;10340;53.664;9.908;2022-11-20T06:11:44;-1.10;99.90
20364;DHT22;10340;53.664;9.908;2022-11-20T06:14:11;1.00;99.90
20364;DHT22;10340;53.664;9.908;2022-11-20T06:16:38;1.00;99.90
20364;DHT22;10340;53.664;9.908;2022-11-20T06:19:05;1.00;99.90
20364;DHT22;10340;53.664;9.908;2022-11-20T06:21:32;1.00;99.90
20364;DHT22;10340;53.664;9.908;2022-11-20T06:24:01;0.90;99.90
20364;DHT22;10340;53.664;9.908;2022-11-20T06:26:28;0.90;99.90
20364;DHT22;10340;53.664;9.908;2022-11-20T06:28:55;0.80;99.90
20364;DHT22;10340;53.664;9.908;2022-11-20T06:31:23;0.80;99.90
20364;DHT22;10340;53.664;9.908;2022-11-20T06:33:51;0.80;99.90
20364;DHT22;10340;53.664;9.908;2022-11-20T06:36:20;0.70;99.90
20364;DHT22;10340;53.664;9.908;2022-11-20T06:38:47;0.70;99.90
20364;DHT22;10340;53.664;9.908;2022-11-20T06:41:18;0.70;99.90
20364;DHT22;10340;53.664;9.908;2022-11-20T06:43:45;0.70;99.90
20364;DHT22;10340;53.664;9.908;2022-11-20T06:46:13;0.70;99.90
20364;DHT22;10340;53.664;9.908;2022-11-20T06:48:43;0.60;99.90
20364;DHT22;10340;53.664;9.908;2022-11-20T06:51:10;0.60;99.90
20364;DHT22;10340;53.664;9.908;2022-11-20T06:53:37;0.60;99.90
20364;DHT22;10340;53.664;9.908;2022-11-20T06:56:05;0.60;99.90
20364;DHT22;10340;53.664;9.908;2022-11-20T06:58:35;0.60;99.90
20364;DHT22;10340;53.664;9.908;2022-11-20T07:01:03;0.70;99.90
20364;DHT22;10340;53.664;9.908;2022-11-20T07:03:30;0.70;99.90
20364;DHT22;10340;53.664;9.908;2022-11-20T07:05:58;0.80;99.90
20364;DHT22;10340;53.664;9.908;2022-11-20T07:08:26;0.80;99.90
20364;DHT22;10340;53.664;9.908;2022-11-20T07:10:57;0.90;99.90
20364;DHT22;10340;53.664;9.908;2022-11-20T07:13:25;0.80;99.90
20364;DHT22;10340;53.664;9.908;2022-11-20T07:15:53;0.90;99.90
20364;DHT22;10340;53.664;9.908;2022-11-20T07:18:20;0.90;99.90
20364;DHT22;10340;53.664;9.908;2022-11-20T07:20:47;0.80;99.90
20364;DHT22;10340;53.664;9.908;2022-11-20T07:23:14;0.90;99.90
20364;DHT22;10340;53.664;9.908;2022-11-20T07:25:41;0.90;99.90
20364;DHT22;10340;53.664;9.908;2022-11-20T07:28:08;0.90;99.90
20364;DHT22;10340;53.664;9.908;2022-11-20T07:30:36;0.30;99.90
20364;DHT22;10340;53.664;9.908;2022-11-20T07:33:04;0.90;99.90
20364;DHT22;10340;53.664;9.908;2022-11-20T07:35:31;0.90;99.90
20364;DHT22;10340;53.664;9.908;2022-11-20T07:37:59;0.90;99.90
20364;DHT22;10340;53.664;9.908;2022-11-20T07:40:26;0.90;99.90
20364;DHT22;10340;53.664;9.908;2022-11-20T07:42:54;0.90;99.90
20364;DHT22;10340;53.664;9.908;2022-11-20T07:45:23;1.00;99.90
20364;DHT22;10340;53.664;9.908;2022-11-20T07:47:50;1.00;99.90
20364;DHT22;10340;53.664;9.908;2022-11-20T07:50:19;1.00;99.90
20364;DHT22;10340;53.664;9.908;2022-11-20T07:52:47;1.00;99.90
20364;DHT22;10340;53.664;9.908;2022-11-20T07:55:14;1.00;99.90
20364;DHT22;10340;53.664;9.908;2022-11-20T07:57:41;1.00;99.90
20364;DHT22;10340;53.664;9.908;2022-11-20T08:00:10;1.00;99.90
20364;DHT22;10340;53.664;9.908;2022-11-20T08:02:38;1.00;99.90
20364;DHT22;10340;53.664;9.908;2022-11-20T08:05:06;1.00;99.90
20364;DHT22;10340;53.664;9.908;2022-11-20T08:07:39;1.00;99.90
20364;DHT22;10340;53.664;9.908;2022-11-20T08:10:07;1.00;99.90
20364;DHT22;10340;53.664;9.908;2022-11-20T08:12:34;1.00;99.90
20364;DHT22;10340;53.664;9.908;2022-11-20T08:15:19;0.90;99.90
20364;DHT22;10340;53.664;9.908;2022-11-20T08:17:46;1.00;99.90
20364;DHT22;10340;53.664;9.908;2022-11-20T08:20:13;1.00;99.90
20364;DHT22;10340;53.664;9.908;2022-11-20T08:22:41;1.00;99.90
20364;DHT22;10340;53.664;9.908;2022-11-20T08:25:08;1.00;99.90
20364;DHT22;10340;53.664;9.908;2022-11-20T08:27:35;1.00;99.90
20364;DHT22;10340;53.664;9.908;2022-11-20T08:30:02;1.00;99.90
20364;DHT22;10340;53.664;9.908;2022-11-20T08:32:30;1.10;99.90
20364;DHT22;10340;53.664;9.908;2022-11-20T08:34:57;1.00;99.90
20364;DHT22;10340;53.664;9.908;2022-11-20T08:37:24;1.10;99.90
20364;DHT22;10340;53.664;9.908;2022-11-20T08:39:52;1.10;99.90
20364;DHT22;10340;53.664;9.908;2022-11-20T08:42:22;1.20;99.90
20364;DHT22;10340;53.664;9.908;2022-11-20T08:44:49;1.20;99.90
20364;DHT22;10340;53.664;9.908;2022-11-20T08:47:16;1.20;99.90
20364;DHT22;10340;53.664;9.908;2022-11-20T08:49:43;1.20;99.90
20364;DHT22;10340;53.664;9.908;2022-11-20T08:52:10;1.20;99.90
20364;DHT22;10340;53.664;9.908;2022-11-20T08:54:37;1.20;99.90
20364;DHT22;10340;53.664;9.908;2022-11-20T08:57:05;1.20;99.90
20364;DHT22;10340;53.664;9.908;2022-11-20T08:59:32;1.20;99.90
20364;DHT22;10340;53.664;9.908;2022-11-20T09:01:59;1.30;99.90
20364;DHT22;10340;53.664;9.908;2022-11-20T09:04:26;1.30;99.90
20364;DHT22;10340;53.664;9.908;2022-11-20T09:06:53;1.30;99.90
20364;DHT22;10340;53.664;9.908;2022-11-20T09:09:20;1.30;99.90
20364;DHT22;10340;53.664;9.908;2022-11-20T09:11:47;1.30;99.90
20364;DHT22;10340;53.664;9.908;2022-11-20T09:14:18;1.50;99.90
20364;DHT22;10340;53.664;9.908;2022-11-20T09:16:46;1.40;99.90
20364;DHT22;10340;53.664;9.908;2022-11-20T09:19:13;1.50;99.90
20364;DHT22;10340;53.664;9.908;2022-11-20T09:21:41;1.50;99.90
20364;DHT22;10340;53.664;9.908;2022-11-20T09:24:08;1.50;99.90
20364;DHT22;10340;53.664;9.908;2022-11-20T09:26:35;1.60;99.90
20364;DHT22;10340;53.664;9.908;2022-11-20T09:29:02;1.60;99.90
20364;DHT22;10340;53.664;9.908;2022-11-20T09:31:30;1.70;99.90
20364;DHT22;10340;53.664;9.908;2022-11-20T09:33:57;1.80;99.90
20364;DHT22;10340;53.664;9.908;2022-11-20T09:36:24;1.80;99.90
20364;DHT22;10340;53.664;9.908;2022-11-20T09:38:52;1.90;99.90
20364;DHT22;10340;53.664;9.908;2022-11-20T09:41:39;2.00;99.90
20364;DHT22;10340;53.664;9.908;2022-11-20T09:44:25;2.00;99.90
20364;DHT22;10340;53.664;9.908;2022-11-20T09:47:01;2.10;99.90
20364;DHT22;10340;53.664;9.908;2022-11-20T09:49:49;2.10;99.90
20364;DHT22;10340;53.664;9.908;2022-11-20T09:52:25;2.20;99.90
20364;DHT22;10340;53.664;9.908;2022-11-20T09:54:56;2.10;99.90
20364;DHT22;10340;53.664;9.908;2022-11-20T09:57:33;2.10;99.90
20364;DHT22;10340;53.664;9.908;2022-11-20T10:00:03;2.10;99.90
20364;DHT22;10340;53.664;9.908;2022-11-20T10:02:37;2.10;99.90
20364;DHT22;10340;53.664;9.908;2022-11-20T10:05:10;2.10;99.90
20364;DHT22;10340;53.664;9.908;2022-11-20T10:07:43;2.10;99.90
20364;DHT22;10340;53.664;9.908;2022-11-20T10:10:15;2.10;99.90
20364;DHT22;10340;53.664;9.908;2022-11-20T10:12:55;2.10;99.90
20364;DHT22;10340;53.664;9.908;2022-11-20T10:15:31;2.30;99.90
20364;DHT22;10340;53.664;9.908;2022-11-20T10:18:12;2.30;99.90
20364;DHT22;10340;53.664;9.908;2022-11-20T10:20:46;2.30;99.90
20364;DHT22;10340;53.664;9.908;2022-11-20T10:23:28;2.30;99.90
20364;DHT22;10340;53.664;9.908;2022-11-20T10:26:01;2.20;99.90
20364;DHT22;10340;53.664;9.908;2022-11-20T10:28:39;2.10;99.90
20364;DHT22;10340;53.664;9.908;2022-11-20T10:31:27;2.10;99.90
20364;DHT22;10340;53.664;9.908;2022-11-20T10:33:57;2.10;99.90
20364;DHT22;10340;53.664;9.908;2022-11-20T10:36:30;2.30;99.90
20364;DHT22;10340;53.664;9.908;2022-11-20T10:39:05;2.40;99.90
20364;DHT22;10340;53.664;9.908;2022-11-20T10:41:34;2.40;99.90
20364;DHT22;10340;53.664;9.908;2022-11-20T10:44:05;2.40;99.90
20364;DHT22;10340;53.664;9.908;2022-11-20T10:49:51;2.60;99.90
20364;DHT22;10340;53.664;9.908;2022-11-20T10:52:25;2.60;99.90
20364;DHT22;10340;53.664;9.908;2022-11-20T10:55:02;2.60;99.90
20364;DHT22;10340;53.664;9.908;2022-11-20T10:57:45;2.60;99.90
20364;DHT22;10340;53.664;9.908;2022-11-20T11:00:15;2.60;99.90
20364;DHT22;10340;53.664;9.908;2022-11-20T11:02:46;2.70;99.90
20364;DHT22;10340;53.664;9.908;2022-11-20T11:05:22;2.70;99.90
20364;DHT22;10340;53.664;9.908;2022-11-20T11:07:52;2.70;99.90
20364;DHT22;10340;53.664;9.908;2022-11-20T11:10:24;2.70;99.90
20364;DHT22;10340;53.664;9.908;2022-11-20T11:12:52;2.70;99.90
20364;DHT22;10340;53.664;9.908;2022-11-20T11:15:28;2.60;99.90
20364;DHT22;10340;53.664;9.908;2022-11-20T11:17:56;2.60;99.90
20364;DHT22;10340;53.664;9.908;2022-11-20T11:20:25;2.50;99.90
20364;DHT22;10340;53.664;9.908;2022-11-20T11:22:54;2.70;99.90
20364;DHT22;10340;53.664;9.908;2022-11-20T11:25:25;2.70;99.90
20364;DHT22;10340;53.664;9.908;2022-11-20T11:27:54;2.80;99.90
20364;DHT22;10340;53.664;9.908;2022-11-20T11:30:23;2.90;99.90
20364;DHT22;10340;53.664;9.908;2022-11-20T11:32:51;2.30;99.90
20364;DHT22;10340;53.664;9.908;2022-11-20T11:35:29;3.00;99.90
20364;DHT22;10340;53.664;9.908;2022-11-20T11:38:04;3.00;99.90
20364;DHT22;10340;53.664;9.908;2022-11-20T11:40:34;3.00;99.90
20364;DHT22;10340;53.664;9.908;2022-11-20T11:43:04;3.00;99.90
20364;DHT22;10340;53.664;9.908;2022-11-20T11:45:53;3.10;99.90
20364;DHT22;10340;53.664;9.908;2022-11-20T11:48:20;3.10;99.90
20364;DHT22;10340;53.664;9.908;2022-11-20T11:50:50;3.00;99.90
20364;DHT22;10340;53.664;9.908;2022-11-20T11:53:19;3.10;99.90
20364;DHT22;10340;53.664;9.908;2022-11-20T11:55:49;3.10;99.90
20364;DHT22;10340;53.664;9.908;2022-11-20T11:58:39;3.20;99.90
20364;DHT22;10340;53.664;9.908;2022-11-20T12:01:17;3.20;99.90
20364;DHT22;10340;53.664;9.908;2022-11-20T12:03:54;3.20;99.90
20364;DHT22;10340;53.664;9.908;2022-11-20T12:06:25;3.30;99.90
20364;DHT22;10340;53.664;9.908;2022-11-20T12:08:59;3.40;99.90
20364;DHT22;10340;53.664;9.908;2022-11-20T12:11:33;3.40;99.90
20364;DHT22;10340;53.664;9.908;2022-11-20T12:14:08;3.40;99.90
20364;DHT22;10340;53.664;9.908;2022-11-20T12:16:38;3.40;99.90
20364;DHT22;10340;53.664;9.908;2022-11-20T12:19:08;3.40;99.90
20364;DHT22;10340;53.664;9.908;2022-11-20T12:21:46;3.40;99.90
20364;DHT22;10340;53.664;9.908;2022-11-20T12:24:32;3.30;99.90
20364;DHT22;10340;53.664;9.908;2022-11-20T12:27:11;3.30;99.90
20364;DHT22;10340;53.664;9.908;2022-11-20T12:29:51;3.30;99.90
20364;DHT22;10340;53.664;9.908;2022-11-20T12:35:42;3.30;99.90
20364;DHT22;10340;53.664;9.908;2022-11-20T12:41:18;3.50;99.90
20364;DHT22;10340;53.664;9.908;2022-11-20T12:44:15;3.50;99.90
20364;DHT22;10340;53.664;9.908;2022-11-20T12:47:14;3.60;99.90
20364;DHT22;10340;53.664;9.908;2022-11-20T12:49:50;3.60;99.90
20364;DHT22;10340;53.664;9.908;2022-11-20T12:52:38;3.70;99.90
20364;DHT22;10340;53.664;9.908;2022-11-20T12:55:23;3.70;99.90
20364;DHT22;10340;53.664;9.908;2022-11-20T12:57:56;3.80;99.90
20364;DHT22;10340;53.664;9.908;2022-11-20T13:00:25;3.90;99.90
20364;DHT22;10340;53.664;9.908;2022-11-20T13:03:16;3.90;99.90
20364;DHT22;10340;53.664;9.908;2022-11-20T13:05:55;3.90;99.90
20364;DHT22;10340;53.664;9.908;2022-11-20T13:08:27;4.00;99.90
20364;DHT22;10340;53.664;9.908;2022-11-20T13:11:01;3.80;99.90
20364;DHT22;10340;53.664;9.908;2022-11-20T13:13:35;3.70;99.90
20364;DHT22;10340;53.664;9.908;2022-11-20T13:16:06;3.60;99.90
20364;DHT22;10340;53.664;9.908;2022-11-20T13:18:39;3.50;99.90
20364;DHT22;10340;53.664;9.908;2022-11-20T13:21:15;3.50;99.90
20364;DHT22;10340;53.664;9.908;2022-11-20T13:23:42;3.50;99.90
20364;DHT22;10340;53.664;9.908;2022-11-20T13:26:19;3.50;99.90
20364;DHT22;10340;53.664;9.908;2022-11-20T13:28:59;3.50;99.90
20364;DHT22;10340;53.664;9.908;2022-11-20T13:31:31;3.50;99.90
20364;DHT22;10340;53.664;9.908;2022-11-20T13:34:00;3.50;99.90
20364;DHT22;10340;53.664;9.908;2022-11-20T13:36:29;3.50;99.90
20364;DHT22;10340;53.664;9.908;2022-11-20T13:38:58;3.50;99.90
20364;DHT22;10340;53.664;9.908;2022-11-20T13:41:28;3.50;99.90
20364;DHT22;10340;53.664;9.908;2022-11-20T13:43:59;3.50;99.90
20364;DHT22;10340;53.664;9.908;2022-11-20T13:46:39;3.50;99.90
20364;DHT22;10340;53.664;9.908;2022-11-20T13:49:18;3.60;99.90
20364;DHT22;10340;53.664;9.908;2022-11-20T13:51:49;3.50;99.90
20364;DHT22;10340;53.664;9.908;2022-11-20T13:54:42;3.50;99.90
20364;DHT22;10340;53.664;9.908;2022-11-20T13:57:32;3.50;99.90
20364;DHT22;10340;53.664;9.908;2022-11-20T14:00:08;3.50;99.90
20364;DHT22;10340;53.664;9.908;2022-11-20T14:02:37;3.50;99.90
20364;DHT22;10340;53.664;9.908;2022-11-20T14:05:04;3.50;99.90
20364;DHT22;10340;53.664;9.908;2022-11-20T14:07:35;3.50;99.90
20364;DHT22;10340;53.664;9.908;2022-11-20T14:10:03;3.50;99.90
20364;DHT22;10340;53.664;9.908;2022-11-20T14:12:33;3.50;99.90
20364;DHT22;10340;53.664;9.908;2022-11-20T14:15:00;3.50;99.90
20364;DHT22;10340;53.664;9.908;2022-11-20T14:17:31;3.40;99.90
20364;DHT22;10340;53.664;9.908;2022-11-20T14:20:01;3.50;99.90
20364;DHT22;10340;53.664;9.908;2022-11-20T14:22:29;3.40;99.90
20364;DHT22;10340;53.664;9.908;2022-11-20T14:25:06;3.40;99.90
20364;DHT22;10340;53.664;9.908;2022-11-20T14:27:37;3.40;99.90
20364;DHT22;10340;53.664;9.908;2022-11-20T14:30:05;3.30;99.90
20364;DHT22;10340;53.664;9.908;2022-11-20T14:32:35;3.30;99.90
20364;DHT22;10340;53.664;9.908;2022-11-20T14:35:08;3.20;99.90
20364;DHT22;10340;53.664;9.908;2022-11-20T14:37:37;3.10;99.90
20364;DHT22;10340;53.664;9.908;2022-11-20T14:40:22;3.10;99.90
20364;DHT22;10340;53.664;9.908;2022-11-20T14:42:51;3.00;99.90
20364;DHT22;10340;53.664;9.908;2022-11-20T14:45:19;3.00;99.90
20364;DHT22;10340;53.664;9.908;2022-11-20T14:47:47;2.90;99.90
20364;DHT22;10340;53.664;9.908;2022-11-20T14:50:19;2.90;99.90
20364;DHT22;10340;53.664;9.908;2022-11-20T14:52:51;2.90;99.90
20364;DHT22;10340;53.664;9.908;2022-11-20T14:55:29;2.90;99.90
20364;DHT22;10340;53.664;9.908;2022-11-20T14:58:00;2.90;99.90
20364;DHT22;10340;53.664;9.908;2022-11-20T15:00:28;2.80;99.90
20364;DHT22;10340;53.664;9.908;2022-11-20T15:02:55;2.80;99.90
20364;DHT22;10340;53.664;9.908;2022-11-20T15:05:25;2.70;99.90
20364;DHT22;10340;53.664;9.908;2022-11-20T15:08:05;2.70;99.90
20364;DHT22;10340;53.664;9.908;2022-11-20T15:10:33;2.70;99.90
20364;DHT22;10340;53.664;9.908;2022-11-20T15:13:03;2.70;99.90
20364;DHT22;10340;53.664;9.908;2022-11-20T15:15:35;2.70;99.90
20364;DHT22;10340;53.664;9.908;2022-11-20T15:18:03;2.60;99.90
20364;DHT22;10340;53.664;9.908;2022-11-20T15:20:32;2.60;99.90
20364;DHT22;10340;53.664;9.908;2022-11-20T15:23:00;2.60;99.90
20364;DHT22;10340;53.664;9.908;2022-11-20T15:25:27;2.60;99.90
20364;DHT22;10340;53.664;9.908;2022-11-20T15:27:56;2.60;99.90
20364;DHT22;10340;53.664;9.908;2022-11-20T15:30:24;2.60;99.90
20364;DHT22;10340;53.664;9.908;2022-11-20T15:32:51;2.70;99.90
20364;DHT22;10340;53.664;9.908;2022-11-20T15:35:18;2.60;99.90
20364;DHT22;10340;53.664;9.908;2022-11-20T15:37:45;2.70;99.90
20364;DHT22;10340;53.664;9.908;2022-11-20T15:40:12;2.70;99.90
20364;DHT22;10340;53.664;9.908;2022-11-20T15:42:39;2.70;99.90
20364;DHT22;10340;53.664;9.908;2022-11-20T15:45:30;2.70;99.90
20364;DHT22;10340;53.664;9.908;2022-11-20T15:47:59;2.70;99.90
20364;DHT22;10340;53.664;9.908;2022-11-20T15:50:31;2.70;99.90
20364;DHT22;10340;53.664;9.908;2022-11-20T15:53:00;2.70;99.90
20364;DHT22;10340;53.664;9.908;2022-11-20T15:55:27;2.60;99.90
20364;DHT22;10340;53.664;9.908;2022-11-20T15:57:54;2.60;99.90
20364;DHT22;10340;53.664;9.908;2022-11-20T16:00:21;2.50;99.90
20364;DHT22;10340;53.664;9.908;2022-11-20T16:02:49;2.40;99.90
20364;DHT22;10340;53.664;9.908;2022-11-20T16:05:16;2.40;99.90
20364;DHT22;10340;53.664;9.908;2022-11-20T16:07:44;2.40;99.90
20364;DHT22;10340;53.664;9.908;2022-11-20T16:10:11;2.40;99.90
20364;DHT22;10340;53.664;9.908;2022-11-20T16:12:38;2.40;99.90